My Meet Scores
Samantha Purser, GymNasti - MyMeetScores.com
Top100 | Top Teams | Upcoming Meets | Completed Meets | Latest | Add Scores | Help| Support | Bookmark and Share

Samantha Purser, GymNasti
Personal Bests
LevelVault BarsBeamFloorAA
39.6509.450 9.4509.60037.625
49.2009.450 9.5009.12536.825
59.5258.800 9.5509.20036.775
79.0009.275 9.4009.37536.900
Meet Scores
Date Meet Team Session Level Division Vault Bars Beam Floor AA
2019-03-29 Illinois Level 7 & 8 State Meet GymNasti 7 7 Jr E 9.000 14T 9.125 12 9.400 5T 9.375 13 36.900 11
2019-02-15 Women's Midwest Open GymNasti 02 7 Junior A 8.350 11T 9.275 7T 9.075 10 8.600 15 35.300 11
2019-02-08 IGI Chicago Style 2019 GymNasti 22 7 421 Rush L7 A 8.550 17 8.250 20 9.250 11 9.050 16 35.100 18
2019-01-25 King Arthur Invitational GymNasti 5 7 CH 8.925 10 8.800 10T 9.100 7 8.600 12 35.425 9
2019-01-11 St Jude Benefit Meet GymNasti 5B 7 Jr B 8.650 13 8.575 16 9.300 10 9.150 18 35.675 15
2018-12-07 St. Nick Invite 2018 GymNasti 6B 7 JrB 8.000 12 9.000 6 9.150 4 9.050 10T 35.200 9
2018-03-08 Level 4 & 5 State GymNasti 11 5 Jr B 9.425 6T 8.650 18T 9.500 4 9.200 7T 36.775 8
2018-02-23 Kinetic Classic GymNasti 8 5 Middle 9.175 24T 8.800 60T 9.250 24T 9.100 43T 36.325 29T
2018-02-17 Women's Midwest Open GymNasti 01 5 Jr B 9.525 1 8.600 10 9.250 3 8.600 11 35.975 3
2018-01-26 King Arthur Invitational GymNasti 4 5 JR 9.125 5T 8.450 11 9.225 4 8.850 8 35.650 7
2018-01-12 St Jude Benefit Meet GymNasti 7A 5 JrB 8.775 6T 7.800 15 9.350 3 9.000 5 34.925 9
2017-12-08 St. Nick Invite GymNasti 4 5 JrB 9.200 3 8.625 11T 9.550 5T 9.000 6 36.375 4
2017-03-10 2017 Illinois Level 4 State Championships GymNasti 4 4 Youth D 9.200 3T 9.000 9T 9.500 6 9.125 10 36.825 5
2017-02-17 Midwest Open GymNasti 2B 4 Sr A 9.075 6 9.275 3 9.325 3 8.950 5 36.625 3
2017-02-10 IGI Chicago Style Gymnastics Meet GymNasti 632L 4 JrB 9.025 1 8.800 9 9.000 8 9.000 5 35.825 3
2017-02-03 2017 Gateway Challenge GymNasti 6B 4 9 8.900 3T 9.150 2 9.425 1 8.800 12 36.275 2
2017-01-20 2017 Bravo Classic GymNasti 08B 4 9yrs 8.775 8 9.450 5 9.425 2 9.075 6 36.725 1
2017-01-13 St Jude Benefit Meet GymNasti 3A 4 Jr C 8.400 7 9.250 4 9.325 6 9.050 4 36.025 4
2016-12-09 St. Nick Invite GymNasti 7 4 JrB 8.850 7 8.800 8T 8.550 16 9.000 7T 35.200 10
2016-03-04 2016 Illinois Level 3 State Championships GymNasti 3 Junior-A 9.425 7 9.300 8 9.150 7 9.350 5 37.225 4
2016-02-19 Midwest Open Womens 2016 GymNasti 1A 3 9+ 9.400 13 9.450 3 9.450 2 9.275 6 37.575 3
2016-02-12 IGI Chicago Style Gymnastics Meet GymNasti 213 3 SrA 9.425 3 9.200 5 9.000 8 9.150 9 36.775 6
2016-01-22 King Arthur Invitational GymNasti S13 3 Sr.A 9.400 1 8.700 14 9.450 5 9.125 6 36.675 7
2016-01-08 St Jude Benefit Meet GymNasti 7A 3 Sr A 9.650 3 9.075 2T 9.300 2 9.600 2 37.625 1
2015-12-04 2015 Ultimate Wish Classic GymNasti 11B 3 All 9.000 31 9.050 28 9.000 24 9.150 38 36.200 26
2015-03-12 2015 Illinois Level 3 State Championship GymNasti All 3 Child-F 9.000 24 8.925 17 9.100 9 9.225 9 36.250 14
2015-02-20 Midwest Open 2015 GymNasti 3A 3 8 8.950 22 8.750 14 8.650 9 8.600 18 34.950 12
Get your scores on
a t-shirt, pin, or hoodie

Order by December 12

www.lazysuits.com